KFNL

Fort Collins-Loveland Municipal Airport

Fort Collins/Loveland, Colorado, USA
METAR KFNL 201856Z AUTO 13008KT 10SM CLR 19/M02 A3039 RMK AO2 SLP263 T01891022 PNO $
Observed Flight Rules
Oct-20 @ 18:56 UTC (54 minutes ago) Visual Flight Rules
Wind Visibility Clouds
130° at 8 knots 10 miles
  • Clear skies
Temperatures Readings
Current 19°C / 66°F
Dewpoint -2°C / 28°F
Humidity 24%
Altimeter 30.39" Hg
Pressure 1026.3 hPa
Elevation 1529
METAR KFNL 201856Z AUTO 13008KT 10SM CLR 19/M02 A3039 RMK AO2 SLP263 T01891022 PNO $
Observed Flight Rules
Oct-20 @ 18:56 UTC
(54 minutes ago)
VFR
Wind Visibility
130° at 8 knots 10 miles
Clouds
  • Clear skies
Temperature Dewpoint
19°C / 66°F -2°C / 28°F
Humidity Altimeter Pressure
24% 30.39" Hg 1026.3 hPa